INFORMAÇÕES DO AERODROMO
Icao Aerodromo VMMC Nome do Aerodromo Macau International Airport Cidade Taipa
Código GPS VMMC Elevação Média 20 ft Tipo de Aerodromo Aeroporto Grande Porte

INFORMAÇÃO DE PISTA
Pista 16 Comprimento da Pista 10544 ft Largura da Pista 148 ft
Elevação da Pista 20 ft Distância de Area de Escape da Pista 1195 ft Orientação da Pista 160
Pista 34 Comprimento da Pista 10544 ft Largura da Pista 148 ft
Elevação da Pista 20 ft Distância de Area de Escape da Pista 1215 ft Orientação da Pista 340

FREQUÊNCIAS DO AERODROMO
Tipo APP Nome HONG KONG Frequência 126.3 MHZ
Tipo ATIS Nome ATIS Frequência 126.4 MHZ
Tipo GND Nome GND Frequência 121.725 MHZ
Tipo TWR Nome TWR Frequência 118 MHZ

INFORMAÇÕES DE NAVEGAÇÃO PRÓXIMO AO AERODROMO
Tipo VOR-DME Nome Macau Frequência 116400 KHZ
Tipo VOR Nome Jiuzhou Frequência 117200 KHZ

Informações de Meteorologia(METAR atual)
METAR DE VMMC
ADDS - METARS form results

(1240 UTC 20 April 2021)
Data provider http://aviationweather.gov/metar/data/
 
METAR text: VMMC 201230Z 10012KT 9999 FEW045 23/19 Q1012 NOSIG
Conditions at: VMMC (MACAO/MACAU , MO) observed 1230 UTC 20 April 2021
Temperature: 23.0°C (73°F)
Dewpoint: 19.0°C (66°F) [RH = 78%]
Pressure (altimeter): 29.88 inches Hg (1012.0 mb)
Winds: from the E (100 degrees) at 14 MPH (12 knots; 6.2 m/s)
Visibility: 6 or more miles (10+ km)
Ceiling: at least 12,000 feet AGL
Clouds: few clouds at 4500 feet AGL
Weather: no significant weather observed at this time

METAR text: VMMC 201200Z 10011KT 9999 FEW045 23/19 Q1012 NOSIG
Conditions at: VMMC (MACAO/MACAU , MO) observed 1200 UTC 20 April 2021
Temperature: 23.0°C (73°F)
Dewpoint: 19.0°C (66°F) [RH = 78%]
Pressure (altimeter): 29.88 inches Hg (1012.0 mb)
Winds: from the E (100 degrees) at 13 MPH (11 knots; 5.7 m/s)
Visibility: 6 or more miles (10+ km)
Ceiling: at least 12,000 feet AGL
Clouds: few clouds at 4500 feet AGL
Weather: no significant weather observed at this time

Forecast for: VMMC (MACAO/MACAU , MO)
Text: TAF VMMC 201100Z 2012/2118 11008KT 9999 FEW045
Forecast period: 1200 UTC 20 April 2021 to 1800 UTC 21 April 2021
Forecast type: FROM: standard forecast or significant change
Winds: from the ESE (110 degrees) at 9 MPH (8 knots; 4.1 m/s)
Visibility: 6 or more miles (10+ km)
Ceiling: at least 12,000 feet AGL
Clouds: few clouds at 4500 feet AGL
Weather: no significant weather forecast for this period

MAPA DO AERODROMO


Desenvolvido por Virtual Airlines Manager




Modificado por Grupo Brasil Amigos